Spirit Falls, Wisconsin
Current Conditions -  °F | °C
As of 5:55 AM on Monday 24 Nov 2014 (Local Time) from KTKV Reporting Station
Moderate Rain Moderate Rain  
Wind Chill: 28°   Ceiling: 800
Heat Index: 35°   Visibility: 7mi
Dew Point: 34°   Wind: 8mph
Humidity: 97%   Direction: 310°NW
Pressure: 29.08"   Gusts: NA
Location:  45.6083°N, 89.9711°W
Report Text: KTKV 241155Z AUTO 31007KT 7SM RA OVC008 02/01 A2908 RMK AO2 P0002 60020 70042 T00160012 10040 20016
Loading
Personal Weather Stations






























Interactive Weather Map New forecast layout! Learn more

10-Day Weather Forecast

Advertisements
Track Severe Weather on mobile